x

Half Moon Bay - 24nm Ssw Of San Francisco, Ca (46012) Wave Buoy

7:50pm - Fri 29th Jul 2016 All times are PDT. -7 hours from GMT.

  • Sig Wave height 4.9ft
  • Swell Direction
  • Peak Period 10s
  • Average Period 8s
  • Wind
    7mph, 9mph gusts
  • Sea Temp 56°f
  • Air Temp 56°f
  • Sea Pressure 1009.6mb
  • Half Moon Bay - 24nm Ssw Of San Francisco, Ca
  • Half Moon Bay - 24nm Ssw Of San Francisco, Ca

More Historic Weather Station data

Upgrade to MSW Pro to gain access to the past 30 days of data for over 8000 Wavebouys and Weather Stations around the globe.

Join Pro

Comparision Forecast

View Surf forecast
   
Fri 07/29 7:50pm 5ft 10s 8s 7 9 mph 1009.6mb 56f 56f
6:50pm 5ft 10s 7s 7 9 mph 1009.7mb 56f 56f
5:50pm 4.5ft 8s 7s 7 9 mph 1010mb 56f 56f
4:50pm 4.5ft 10s 7s 7 11 mph 1010.5mb 57f 56f
3:50pm 4.5ft 10s 7s 9
mph
1010.7mb 57f 56f
2:50pm 4.5ft 10s 7s 7 9 mph 1011.3mb 57f 56f
1:50pm 4ft 9s 7s 7
mph
1011.6mb 57f 55f
12:50pm 4ft 10s 7s 4
mph
1012mb 58f 55f
11:50am 4.5ft 10s 7s 4 7 mph 1012.1mb 57f 55f
10:50am 4ft 9s 6s 4 7 mph 1012.1mb 57f 54f
9:50am 4.5ft 8s 7s 2 4 mph 1012mb 56f 53f
8:50am 5ft 10s 7s 4 7 mph 1011.9mb 56f 53f
7:50am 4.5ft 9s 7s 4 7 mph 1011.9mb 56f 53f
6:50am 4.5ft 9s 7s 7 9 mph 1011.6mb 55f 53f
5:50am 4.5ft 9s 7s 9 11 mph 1011.2mb 55f 53f
4:50am 4.5ft 10s 7s 9 11 mph 1011mb 55f 53f
3:50am 4ft 10s 7s 7 9 mph 1011.2mb 55f 53f
2:50am 4ft 10s 7s 7 9 mph 1011.3mb 55f 54f
1:50am 4.5ft 10s 7s 7 9 mph 1011.7mb 55f 54f
12:50am 5ft 9s 7s 7 11 mph 1011.9mb 55f 54f
Thu 07/28 11:50pm 4.5ft 10s 7s 7 9 mph 1012.1mb 55f 54f
10:50pm 5ft 9s 7s 7 9 mph 1012.4mb 55f 54f
9:50pm 4.5ft 8s 7s 9 11 mph 1012.2mb 56f 54f
8:50pm 5ft 10s 7s 7 11 mph 1011.7mb 56f 54f
7:50pm 5ft 9s 7s 7 9 mph 1011.7mb 56f 54f
6:50pm 4.5ft 10s 7s 9 11 mph 1011.6mb 56f 54f
5:50pm 4.5ft 9s 7s 9 11 mph 1012.2mb 56f 55f
4:50pm 4.5ft 10s 7s 9 11 mph 1012.6mb 56f 55f
3:50pm 5ft 8s 7s 7 9 mph 1013mb 56f 55f
2:50pm 4.5ft 10s 7s 9 11 mph 1013.3mb 56f 55f
1:50pm 5.5ft 10s 7s 9 11 mph 1013.6mb 56f 55f
12:50pm 5.5ft 9s 7s 4 7 mph 1013.9mb 56f 55f
11:50am 6ft 10s 7s 7 9 mph 1013.9mb 56f 54f
10:50am 6ft 10s 7s 7 9 mph 1014mb 55f 54f
9:50am 5.5ft 9s 7s 4 7 mph 1013.9mb 55f 54f
8:50am 5.5ft 9s 7s 7 9 mph 1013.9mb 55f 53f
7:50am 5.5ft 9s 7s 9 11 mph 1013.4mb 55f 53f
6:50am 5ft 10s 7s 9 11 mph 1013.2mb 55f 54f
5:50am 5ft 10s 7s 9 13 mph 1013mb 56f 54f
4:50am 5.5ft 9s 7s 9 11 mph 1013mb 56f 53f
3:50am 6ft 10s 7s 9 13 mph 1013mb 56f 54f
2:50am 5ft 10s 7s 11 13 mph 1012.9mb 56f 54f
1:50am 5.5ft 10s 7s 9 13 mph 1013.2mb 56f 54f
12:50am 6ft 10s 7s 11 16 mph 1013.5mb 56f 54f
Wed 07/27 11:50pm 6.5ft 10s 7s 9 13 mph 1013.7mb 56f 54f
10:50pm 6.5ft 10s 7s 11 13 mph 1013.7mb 57f 54f
9:50pm 6.5ft 10s 7s 9 11 mph 1013.7mb 57f 54f
8:50pm 6ft 9s 7s 7 11 mph 1013.3mb 57f 54f
7:50pm 6ft 10s 7s 7 13 mph 1013.3mb 57f 54f
6:50pm 7ft 10s 8s 11 13 mph 1012.8mb 58f 55f
5:50pm 6.5ft 10s 7s 9 11 mph 1013.1mb 58f 55f
4:50pm 7ft 10s 7s 11 13 mph 1013.2mb 58f 55f
3:50pm 6ft 10s 7s 11 13 mph 1013.4mb 58f 55f
2:50pm 6ft 9s 7s 9 13 mph 1013.9mb 58f 55f
1:50pm 6ft 10s 7s 11 13 mph 1014.1mb 58f 54f
12:50pm 6ft 10s 7s 11 13 mph 1014.1mb 58f 54f
11:50am 6.5ft 10s 7s 11 13 mph 1014.1mb 58f 54f
10:50am 7ft 10s 8s 11 13 mph 1013.8mb 57f 54f
9:50am 6.5ft 9s 7s 9 13 mph 1013.8mb 56f 53f
8:50am 6.5ft 10s 7s 9 13 mph 1013.4mb 56f 53f
7:50am 6ft 9s 7s 9 13 mph 1013mb 56f 53f
6:50am 6ft 10s 8s 11 13 mph 1012.5mb 57f 54f
5:50am 6.5ft 10s 8s 9 11 mph 1012.1mb 57f 56f
4:50am 7ft 10s 8s 7 9 mph 1012mb 58f 56f
3:50am 5ft 10s 8s 7 9 mph 1011.7mb 58f 56f
2:50am 4.5ft 10s 7s 7 9 mph 1011.8mb 58f 56f
1:50am 5ft 11s 7s 9
mph
1012mb 58f 56f
12:50am 5ft 9s 7s 7 9 mph 1012.3mb 58f 56f
Tue 07/26 11:50pm 5ft 10s 7s 9 11 mph 1012.1mb 58f 56f
10:50pm 5ft 10s 7s 7 11 mph 1012.3mb 58f 55f
9:50pm 6ft 10s 7s 11 13 mph 1012.2mb 58f 53f
8:50pm 5.5ft 9s 7s 11 13 mph 1011.8mb 58f 53f
7:50pm 7ft 9s 7s 11 16 mph 1011.7mb 58f 52f
6:50pm 7ft 9s 8s 11 13 mph 1011.6mb 58f 52f
5:50pm 7ft 10s 8s 13 16 mph 1011.5mb 58f 53f
4:50pm 6.5ft 10s 8s 9 13 mph 1011.9mb 58f 53f
3:50pm 5ft 9s  -  9 11 mph 1012.4mb 58f 53f
6:50am 7.5ft 9s 7s 11 13 mph 1013.7mb 55f -
5:50am 7ft 9s 7s 4 9 mph 1013.5mb 55f -
4:50am 7ft 9s 7s 4 7 mph 1013.3mb 55f -
3:50am 6.5ft 8s 7s 4 9 mph 1013.3mb 55f -